Time;durP1;ratioP1;P1;durP2;ratioP2;P2;SDS_P1;SDS_P2;PMS_P1;PMS_P2;Temp;Humidity;BMP_temperature;BMP_pressure;BME280_temperature;BME280_humidity;BME280_pressure;Samples;Min_cycle;Max_cycle;Signal;HPM_P1;HPM_P2
2023/06/25 00:02:37;;;;;;;8.93;5.43;;;;;;;-147.65;100.00;57646.63;10393045;28;20102;-82
2023/06/25 00:07:38;;;;;;;6.22;3.40;;;;;;;-147.65;100.00;57646.63;10408050;28;20042;-82
2023/06/25 00:12:39;;;;;;;7.28;5.85;;;;;;;-147.65;100.00;57646.63;10410198;28;20041;-82
2023/06/25 00:17:40;;;;;;;6.80;3.80;;;;;;;-147.65;100.00;57646.63;10376824;28;20038;-82
2023/06/25 00:22:40;;;;;;;8.77;4.47;;;;;;;-147.65;100.00;57646.63;10400851;28;20038;-82
2023/06/25 00:27:46;;;;;;;11.18;5.00;;;;;;;-147.65;100.00;57646.63;10385514;28;20045;-81
2023/06/25 00:32:54;;;;;;;9.10;4.63;;;;;;;-147.65;100.00;57646.63;10400167;28;20044;-81
2023/06/25 00:38:00;;;;;;;8.18;5.15;;;;;;;-147.65;100.00;57646.63;10403213;28;20087;-81
2023/06/25 00:43:03;;;;;;;6.85;4.40;;;;;;;-147.65;100.00;57646.63;10393106;28;20043;-79
2023/06/25 00:48:03;;;;;;;7.97;4.20;;;;;;;-147.65;100.00;57646.63;10401755;28;20052;-81
2023/06/25 00:53:08;;;;;;;6.72;4.50;;;;;;;-147.65;100.00;57646.63;10428379;28;20045;-80
2023/06/25 00:58:08;;;;;;;9.43;5.63;;;;;;;-147.65;100.00;57646.63;10388629;28;20049;-80
2023/06/25 01:03:15;;;;;;;12.60;6.45;;;;;;;-147.65;100.00;57646.63;10391099;28;20161;-81
2023/06/25 01:08:17;;;;;;;10.55;5.85;;;;;;;-147.65;100.00;57646.63;10362820;28;20038;-81
2023/06/25 01:13:17;;;;;;;9.18;5.30;;;;;;;-147.65;100.00;57646.63;10375078;28;20091;-82
2023/06/25 01:18:18;;;;;;;7.90;5.68;;;;;;;-147.65;100.00;57646.63;10382901;28;20133;-82
2023/06/25 01:23:21;;;;;;;10.48;5.30;;;;;;;-147.65;100.00;57646.63;10391826;28;20045;-81
2023/06/25 01:28:21;;;;;;;11.13;6.95;;;;;;;-147.65;100.00;57646.63;10378677;28;20092;-82
2023/06/25 01:33:25;;;;;;;7.72;4.63;;;;;;;-147.65;100.00;57646.63;10418299;28;20129;-82
2023/06/25 01:38:26;;;;;;;10.55;6.47;;;;;;;-147.65;100.00;57646.63;10368792;28;20038;-82
2023/06/25 01:43:26;;;;;;;9.68;7.18;;;;;;;-147.65;100.00;57646.63;10413592;28;20042;-82
2023/06/25 01:48:27;;;;;;;10.60;6.05;;;;;;;-147.65;100.00;57646.63;10401898;28;20037;-81
2023/06/25 01:53:27;;;;;;;12.70;5.82;;;;;;;-147.65;100.00;57646.63;10377184;28;20046;-81
2023/06/25 01:58:28;;;;;;;10.15;7.38;;;;;;;-147.65;100.00;57646.63;10413808;28;20040;-82
2023/06/25 02:03:28;;;;;;;11.50;7.60;;;;;;;-147.65;100.00;57646.63;10412793;28;20397;-81
2023/06/25 02:08:29;;;;;;;11.00;7.40;;;;;;;-147.65;100.00;57646.63;10415565;28;20057;-82
2023/06/25 02:13:29;;;;;;;11.68;7.68;;;;;;;-147.65;100.00;57646.63;10460200;28;20147;-81
2023/06/25 02:18:31;;;;;;;10.65;7.40;;;;;;;-147.65;100.00;57646.63;10439629;28;20034;-82
2023/06/25 02:23:31;;;;;;;20.40;10.57;;;;;;;-147.65;100.00;57646.63;10372131;28;20096;-81
2023/06/25 02:28:32;;;;;;;11.95;6.68;;;;;;;-147.65;100.00;57646.63;10442691;28;20114;-82
2023/06/25 02:33:32;;;;;;;12.13;8.05;;;;;;;-147.65;100.00;57646.63;10454077;28;20112;-81
2023/06/25 02:38:33;;;;;;;13.88;8.50;;;;;;;-147.65;100.00;57646.63;10375099;28;20550;-81
2023/06/25 02:43:33;;;;;;;14.88;8.02;;;;;;;-147.65;100.00;57646.63;10427773;28;20035;-81
2023/06/25 02:48:36;;;;;;;11.23;7.13;;;;;;;-147.65;100.00;57646.63;10408957;28;20124;-81
2023/06/25 02:53:36;;;;;;;12.18;9.07;;;;;;;-147.65;100.00;57646.63;10402572;28;20162;-81
2023/06/25 02:58:37;;;;;;;16.50;9.02;;;;;;;-147.65;100.00;57646.63;10379539;28;20113;-80
2023/06/25 03:03:37;;;;;;;12.35;8.75;;;;;;;-147.65;100.00;57646.63;10429802;28;20067;-82
2023/06/25 03:08:38;;;;;;;15.45;9.70;;;;;;;-147.65;100.00;57646.63;10406184;28;20045;-82
2023/06/25 03:13:38;;;;;;;16.73;9.65;;;;;;;-147.65;100.00;57646.63;10388680;28;20415;-82
2023/06/25 03:18:39;;;;;;;13.45;7.93;;;;;;;-147.65;100.00;57646.63;10405936;28;20044;-81
2023/06/25 03:23:40;;;;;;;13.52;9.73;;;;;;;-147.65;100.00;57646.63;10404761;28;20045;-82
2023/06/25 03:28:41;;;;;;;13.45;9.65;;;;;;;-147.65;100.00;57646.63;10403506;28;20072;-81
2023/06/25 03:33:41;;;;;;;10.50;7.13;;;;;;;-147.65;100.00;57646.63;10375893;28;20470;-82
2023/06/25 03:38:42;;;;;;;13.18;8.35;;;;;;;-147.65;100.00;57646.63;10394666;28;20052;-81
2023/06/25 03:43:42;;;;;;;12.32;7.45;;;;;;;-147.65;100.00;57646.63;10413024;28;20041;-78
2023/06/25 03:48:43;;;;;;;14.25;8.50;;;;;;;-147.65;100.00;57646.63;10367617;28;20075;-81
2023/06/25 03:53:43;;;;;;;15.82;9.00;;;;;;;-147.65;100.00;57646.63;10388801;28;20037;-81
2023/06/25 03:58:44;;;;;;;13.45;8.90;;;;;;;-147.65;100.00;57646.63;10397580;28;20034;-82
2023/06/25 04:03:44;;;;;;;16.27;9.43;;;;;;;-147.65;100.00;57646.63;10421438;28;20781;-81
2023/06/25 04:08:45;;;;;;;14.25;8.95;;;;;;;-147.65;100.00;57646.63;10390310;28;20041;-81
2023/06/25 04:13:45;;;;;;;13.18;9.40;;;;;;;-147.65;100.00;57646.63;10381350;28;20393;-81
2023/06/25 04:18:46;;;;;;;13.02;8.80;;;;;;;-147.65;100.00;57646.63;10389363;28;20045;-82
2023/06/25 04:23:46;;;;;;;22.15;10.50;;;;;;;-147.65;100.00;57646.63;10411515;28;20029;-80
2023/06/25 04:28:47;;;;;;;18.85;11.80;;;;;;;-147.65;100.00;57646.63;10414124;28;20044;-81
2023/06/25 04:33:47;;;;;;;18.75;9.57;;;;;;;-147.65;100.00;57646.63;10396814;28;20034;-81
2023/06/25 04:38:48;;;;;;;17.90;9.85;;;;;;;-147.65;100.00;57646.63;10330689;28;20115;-81
2023/06/25 04:43:48;;;;;;;17.55;9.13;;;;;;;-147.65;100.00;57646.63;10445069;28;20037;-81
2023/06/25 04:48:50;;;;;;;17.83;9.23;;;;;;;-147.65;100.00;57646.63;10405212;28;20041;-78
2023/06/25 04:53:51;;;;;;;14.18;8.45;;;;;;;-147.65;100.00;57646.63;10408315;28;20045;-80
2023/06/25 04:58:52;;;;;;;14.38;9.52;;;;;;;-147.65;100.00;57646.63;10407896;28;20042;-82
2023/06/25 05:03:52;;;;;;;15.15;6.68;;;;;;;-147.65;100.00;57646.63;10349511;28;20093;-78
2023/06/25 05:08:53;;;;;;;10.73;6.20;;;;;;;-147.65;100.00;57646.63;10373897;28;22544;-81
2023/06/25 05:13:54;;;;;;;10.02;6.50;;;;;;;-147.65;100.00;57646.63;10384494;28;20125;-82
2023/06/25 05:18:54;;;;;;;9.55;6.78;;;;;;;-147.65;100.00;57646.63;10394587;28;20091;-80
2023/06/25 05:24:00;;;;;;;11.18;5.80;;;;;;;-147.65;100.00;57646.63;10371197;28;20038;-80
2023/06/25 05:29:01;;;;;;;10.57;6.10;;;;;;;-147.65;100.00;57646.63;10379030;28;20587;-80
2023/06/25 05:34:02;;;;;;;8.20;5.05;;;;;;;-147.65;100.00;57646.63;10408496;28;20034;-80
2023/06/25 05:39:02;;;;;;;9.57;5.67;;;;;;;-147.65;100.00;57646.63;10392668;28;20041;-83
2023/06/25 05:44:03;;;;;;;8.63;5.73;;;;;;;-147.65;100.00;57646.63;10397732;28;20113;-82
2023/06/25 05:49:04;;;;;;;8.27;4.97;;;;;;;-147.65;100.00;57646.63;10396760;28;20064;-88
2023/06/25 05:54:04;;;;;;;13.57;6.40;;;;;;;-147.65;100.00;57646.63;10398713;28;20065;-85
2023/06/25 05:59:05;;;;;;;9.97;5.73;;;;;;;-147.65;100.00;57646.63;10378946;28;20048;-89
2023/06/25 06:04:06;;;;;;;9.38;7.18;;;;;;;-147.65;100.00;57646.63;10383286;28;20128;-90
2023/06/25 06:09:06;;;;;;;11.33;7.40;;;;;;;-147.65;100.00;57646.63;10401056;28;20033;-90
2023/06/25 06:14:07;;;;;;;7.43;5.50;;;;;;;-147.65;100.00;57646.63;10401801;28;20048;-90
2023/06/25 06:19:08;;;;;;;9.98;5.13;;;;;;;-147.65;100.00;57646.63;10383275;28;20377;-82
2023/06/25 06:24:08;;;;;;;9.65;5.82;;;;;;;-147.65;100.00;57646.63;10442876;28;20097;-82
2023/06/25 06:29:09;;;;;;;11.25;6.97;;;;;;;-147.65;100.00;57646.63;10390609;28;20038;-82
2023/06/25 06:34:10;;;;;;;9.50;6.00;;;;;;;-147.65;100.00;57646.63;10382010;28;20128;-83
2023/06/25 06:39:10;;;;;;;;;;;;;;;-147.65;100.00;57646.63;10412976;28;20038;-80
2023/06/25 06:44:14;;;;;;;8.17;4.57;;;;;;;-147.65;100.00;57646.63;10408391;28;19920;-83
2023/06/25 06:49:17;;;;;;;7.68;4.68;;;;;;;-147.65;100.00;57646.63;10396678;28;20034;-83
2023/06/25 06:54:17;;;;;;;10.57;5.20;;;;;;;-147.65;100.00;57646.63;10400568;28;20045;-83
2023/06/25 06:59:18;;;;;;;8.75;4.65;;;;;;;-147.65;100.00;57646.63;10401800;28;20058;-80
2023/06/25 07:04:18;;;;;;;9.38;5.05;;;;;;;-147.65;100.00;57646.63;10439949;28;20117;-81
2023/06/25 07:09:21;;;;;;;7.60;4.97;;;;;;;-147.65;100.00;57646.63;10399442;28;20106;-79
2023/06/25 07:14:22;;;;;;;8.98;5.28;;;;;;;-147.65;100.00;57646.63;10427209;28;20564;-81
2023/06/25 07:19:22;;;;;;;6.70;4.35;;;;;;;-147.65;100.00;57646.63;10404127;28;20055;-81
2023/06/25 07:24:23;;;;;;;5.97;4.05;;;;;;;-147.65;100.00;57646.63;10368509;28;20406;-81
2023/06/25 07:29:23;;;;;;;6.57;4.80;;;;;;;-147.65;100.00;57646.63;10367882;28;20158;-79
2023/06/25 07:34:24;;;;;;;7.75;4.90;;;;;;;-147.65;100.00;57646.63;10396181;28;20489;-82
2023/06/25 07:39:26;;;;;;;8.25;5.40;;;;;;;-147.65;100.00;57646.63;10398691;28;20037;-80
2023/06/25 07:44:27;;;;;;;6.32;3.80;;;;;;;-147.65;100.00;57646.63;10428630;28;20040;-80
2023/06/25 07:49:27;;;;;;;9.05;5.03;;;;;;;-147.65;100.00;57646.63;10439034;28;20041;-80
2023/06/25 07:54:28;;;;;;;6.53;3.65;;;;;;;-147.65;100.00;57646.63;10399861;28;20033;-81
2023/06/25 07:59:28;;;;;;;17.02;4.85;;;;;;;-147.65;100.00;57646.63;10434914;28;20110;-82
2023/06/25 08:04:29;;;;;;;5.38;4.45;;;;;;;-147.65;100.00;57646.63;10415887;28;20049;-83
2023/06/25 08:09:31;;;;;;;8.30;4.28;;;;;;;-147.65;100.00;57646.63;10388096;28;20041;-79
2023/06/25 08:14:31;;;;;;;6.88;4.63;;;;;;;-147.65;100.00;57646.63;10394975;28;20124;-81
2023/06/25 08:19:32;;;;;;;10.68;5.00;;;;;;;-147.65;100.00;57646.63;10406171;28;20045;-80
2023/06/25 08:24:32;;;;;;;7.82;4.38;;;;;;;-147.65;100.00;57646.63;10417924;28;20053;-79
2023/06/25 08:29:33;;;;;;;5.75;4.47;;;;;;;-147.65;100.00;57646.63;10474011;28;20114;-80
2023/06/25 08:34:33;;;;;;;8.65;5.03;;;;;;;-147.65;100.00;57646.63;10383695;28;20116;-81
2023/06/25 08:39:34;;;;;;;7.28;5.53;;;;;;;-147.65;100.00;57646.63;10417215;28;20045;-83
2023/06/25 08:44:35;;;;;;;5.15;3.75;;;;;;;-147.65;100.00;57646.63;10457035;28;20064;-83
2023/06/25 08:49:36;;;;;;;5.72;4.63;;;;;;;-147.65;100.00;57646.63;10436884;28;20030;-82
2023/06/25 08:54:36;;;;;;;6.22;4.47;;;;;;;-147.65;100.00;57646.63;10416718;28;20038;-82
2023/06/25 08:59:37;;;;;;;7.70;4.85;;;;;;;-147.65;100.00;57646.63;10410274;28;20148;-81
2023/06/25 09:04:37;;;;;;;6.50;4.38;;;;;;;-147.65;100.00;57646.63;10417532;28;20393;-82
2023/06/25 09:09:38;;;;;;;7.82;4.93;;;;;;;-147.65;100.00;57646.63;10386213;28;20049;-81
2023/06/25 09:14:38;;;;;;;7.65;5.07;;;;;;;-147.65;100.00;57646.63;10417140;28;20129;-82
2023/06/25 09:19:43;;;;;;;6.22;4.80;;;;;;;-147.65;100.00;57646.63;10462558;28;20465;-81
2023/06/25 09:24:44;;;;;;;10.68;5.82;;;;;;;-147.65;100.00;57646.63;10435208;28;20037;-81
2023/06/25 09:29:44;;;;;;;5.70;4.25;;;;;;;-147.65;100.00;57646.63;10400434;28;20053;-78
2023/06/25 09:34:46;;;;;;;7.38;4.70;;;;;;;-147.65;100.00;57646.63;10384549;28;20097;-80
2023/06/25 09:39:46;;;;;;;7.80;4.32;;;;;;;-147.65;100.00;57646.63;10338778;28;20100;-79
2023/06/25 09:44:47;;;;;;;8.35;4.60;;;;;;;-147.65;100.00;57646.63;10330485;28;20120;-84
2023/06/25 09:49:47;;;;;;;7.80;5.32;;;;;;;-147.65;100.00;57646.63;10378149;28;20149;-81
2023/06/25 09:54:48;;;;;;;6.68;4.35;;;;;;;-147.65;100.00;57646.63;10367033;28;20381;-81
2023/06/25 09:59:48;;;;;;;5.88;4.72;;;;;;;-147.65;100.00;57646.63;10403089;28;20053;-78
2023/06/25 10:04:50;;;;;;;6.05;4.15;;;;;;;-147.65;100.00;57646.63;10386715;28;20120;-80
2023/06/25 10:09:52;;;;;;;6.75;5.40;;;;;;;-147.65;100.00;57646.63;10401998;28;20029;-81
2023/06/25 10:14:52;;;;;;;8.32;4.93;;;;;;;-147.65;100.00;57646.63;10401989;28;20473;-82
2023/06/25 10:19:55;;;;;;;10.38;6.13;;;;;;;-147.65;100.00;57646.63;10377427;28;20041;-83
2023/06/25 10:24:56;;;;;;;6.25;4.93;;;;;;;-147.65;100.00;57646.63;10436746;28;20091;-83
2023/06/25 10:29:57;;;;;;;6.00;4.82;;;;;;;-147.65;100.00;57646.63;10404868;28;20499;-86
2023/06/25 10:35:02;;;;;;;6.82;5.53;;;;;;;-147.65;100.00;57646.63;10409205;28;20104;-85
2023/06/25 10:40:07;;;;;;;6.03;4.95;;;;;;;-147.65;100.00;57646.63;10416246;28;20036;-82
2023/06/25 10:45:08;;;;;;;7.22;5.07;;;;;;;-147.65;100.00;57646.63;10413426;28;20029;-84
2023/06/25 10:50:08;;;;;;;8.60;4.20;;;;;;;-147.65;100.00;57646.63;10396758;28;20049;-82
2023/06/25 10:55:09;;;;;;;5.80;4.80;;;;;;;-147.65;100.00;57646.63;10404259;28;20042;-84
2023/06/25 11:00:10;;;;;;;6.70;4.68;;;;;;;-147.65;100.00;57646.63;10387921;28;20116;-83
2023/06/25 11:05:11;;;;;;;7.47;5.40;;;;;;;-147.65;100.00;57646.63;10403933;28;20069;-84
2023/06/25 11:10:13;;;;;;;7.80;4.28;;;;;;;-147.65;100.00;57646.63;10407403;28;20117;-83
2023/06/25 11:15:15;;;;;;;7.68;4.30;;;;;;;-147.65;100.00;57646.63;10409577;28;20400;-87
2023/06/25 11:20:16;;;;;;;4.88;3.78;;;;;;;-147.65;100.00;57646.63;10393336;28;20044;-82
2023/06/25 11:25:17;;;;;;;6.13;4.70;;;;;;;-147.65;100.00;57646.63;10446347;28;20448;-83
2023/06/25 11:30:17;;;;;;;6.00;4.28;;;;;;;-147.65;100.00;57646.63;10409079;28;20120;-84
2023/06/25 11:35:18;;;;;;;6.50;4.45;;;;;;;-147.65;100.00;57646.63;10411591;28;20053;-79
2023/06/25 11:40:22;;;;;;;8.32;4.53;;;;;;;-147.65;100.00;57646.63;10406127;28;20057;-81
2023/06/25 11:45:23;;;;;;;5.65;4.32;;;;;;;-147.65;100.00;57646.63;10383263;28;20459;-82
2023/06/25 11:50:23;;;;;;;6.43;3.95;;;;;;;-147.65;100.00;57646.63;10410411;28;20156;-82
2023/06/25 11:55:24;;;;;;;5.97;4.40;;;;;;;-147.65;100.00;57646.63;10370697;28;20045;-82
2023/06/25 12:00:25;;;;;;;6.68;3.85;;;;;;;-147.65;100.00;57646.63;10396292;28;20059;-82
2023/06/25 12:05:25;;;;;;;7.93;5.55;;;;;;;-147.65;100.00;57646.63;10435731;28;20125;-81
2023/06/25 12:10:26;;;;;;;5.53;4.05;;;;;;;-147.65;100.00;57646.63;10417283;28;20503;-81
2023/06/25 12:15:26;;;;;;;9.73;5.15;;;;;;;-147.65;100.00;57646.63;10411623;28;20158;-81
2023/06/25 12:20:27;;;;;;;6.80;4.10;;;;;;;-147.65;100.00;57646.63;10403358;28;20125;-82
2023/06/25 12:25:29;;;;;;;8.02;4.55;;;;;;;-147.65;100.00;57646.63;10400718;28;20040;-82
2023/06/25 12:30:29;;;;;;;6.80;5.20;;;;;;;-147.65;100.00;57646.63;10388592;28;20493;-80
2023/06/25 12:35:30;;;;;;;5.80;5.00;;;;;;;-147.65;100.00;57646.63;10366857;28;20053;-82
2023/06/25 12:40:30;;;;;;;7.72;4.75;;;;;;;-147.65;100.00;57646.63;10407153;28;20778;-85
2023/06/25 12:45:31;;;;;;;7.95;5.20;;;;;;;-147.65;100.00;57646.63;10365041;28;20493;-80
2023/06/25 12:50:31;;;;;;;6.90;4.47;;;;;;;-147.65;100.00;57646.63;10388109;28;20055;-83
2023/06/25 12:55:32;;;;;;;5.22;3.88;;;;;;;-147.65;100.00;57646.63;10405128;28;20060;-85
2023/06/25 13:00:32;;;;;;;6.93;5.03;;;;;;;-147.65;100.00;57646.63;10359498;28;20168;-84
2023/06/25 13:05:33;;;;;;;5.13;3.88;;;;;;;-147.65;100.00;57646.63;10404904;28;20061;-85
2023/06/25 13:10:33;;;;;;;6.93;4.85;;;;;;;-147.65;100.00;57646.63;10381624;28;20042;-84
2023/06/25 13:15:34;;;;;;;6.63;3.85;;;;;;;-147.65;100.00;57646.63;10385362;28;20094;-85
2023/06/25 13:20:35;;;;;;;7.65;5.13;;;;;;;-147.65;100.00;57646.63;10418658;28;20104;-85
2023/06/25 13:25:37;;;;;;;5.90;4.90;;;;;;;-147.65;100.00;57646.63;10442371;28;20112;-85
2023/06/25 13:30:38;;;;;;;6.60;4.63;;;;;;;-147.65;100.00;57646.63;10434709;28;20038;-85
2023/06/25 13:35:39;;;;;;;9.20;5.30;;;;;;;-147.65;100.00;57646.63;10400690;28;20057;-87
2023/06/25 13:40:39;;;;;;;6.68;4.70;;;;;;;-147.65;100.00;57646.63;10387245;28;20086;-86
2023/06/25 13:45:40;;;;;;;6.10;3.80;;;;;;;-147.65;100.00;57646.63;10395604;28;20504;-80
2023/06/25 13:50:41;;;;;;;6.68;4.57;;;;;;;-147.65;100.00;57646.63;10351571;28;20052;-79
2023/06/25 13:55:42;;;;;;;6.68;4.80;;;;;;;-147.65;100.00;57646.63;10418136;28;20084;-83
2023/06/25 14:00:42;;;;;;;5.85;4.90;;;;;;;-147.65;100.00;57646.63;10388184;28;20029;-80
2023/06/25 14:05:43;;;;;;;5.30;3.70;;;;;;;-147.65;100.00;57646.63;10404871;28;20069;-81
2023/06/25 14:10:44;;;;;;;15.25;10.32;;;;;;;-147.65;100.00;57646.63;10402470;28;20045;-82
2023/06/25 14:15:45;;;;;;;12.32;7.65;;;;;;;-147.65;100.00;57646.63;10397774;28;20033;-83
2023/06/25 14:20:46;;;;;;;8.45;5.70;;;;;;;-147.65;100.00;57646.63;10390029;28;20119;-80
2023/06/25 14:25:46;;;;;;;5.82;4.28;;;;;;;-147.65;100.00;57646.63;10400257;28;20049;-80
2023/06/25 14:30:47;;;;;;;6.95;4.32;;;;;;;-147.65;100.00;57646.63;10360614;28;20038;-78
2023/06/25 14:35:47;;;;;;;15.77;4.97;;;;;;;-147.65;100.00;57646.63;10400398;28;20129;-79
2023/06/25 14:40:48;;;;;;;7.78;5.70;;;;;;;-147.65;100.00;57646.63;10414855;28;20632;-78
2023/06/25 14:45:49;;;;;;;8.23;4.90;;;;;;;-147.65;100.00;57646.63;10401387;28;20044;-80
2023/06/25 14:50:49;;;;;;;8.38;4.43;;;;;;;-147.65;100.00;57646.63;10393513;28;20045;-80
2023/06/25 14:55:50;;;;;;;6.50;4.93;;;;;;;-147.65;100.00;57646.63;10411408;28;20049;-81
2023/06/25 15:00:50;;;;;;;;;;;;;;;-147.65;100.00;57646.63;10403592;28;20087;-79
2023/06/25 15:05:51;;;;;;;6.23;5.30;;;;;;;-147.65;100.00;57646.63;10383863;28;19971;-80
2023/06/25 15:10:51;;;;;;;;;;;;;;;-147.65;100.00;57646.63;10404102;28;20042;-79
2023/06/25 15:15:52;;;;;;;6.35;4.60;;;;;;;-147.65;100.00;57646.63;10401281;28;19920;-80
2023/06/25 15:20:52;;;;;;;;;;;;;;;-147.65;100.00;57646.63;10391561;28;20500;-80
2023/06/25 15:25:53;;;;;;;5.13;4.30;;;;;;;-147.65;100.00;57646.63;10363576;28;20376;-79
2023/06/25 15:30:54;;;;;;;7.15;5.38;;;;;;;-147.65;100.00;57646.63;10390735;28;20029;-80
2023/06/25 15:35:54;;;;;;;;;;;;;;;-147.65;100.00;57646.63;10350190;28;20132;-80
2023/06/25 15:40:56;;;;;;;6.47;5.00;;;;;;;-147.65;100.00;57646.63;10362432;28;19921;-80
2023/06/25 15:45:56;;;;;;;9.73;5.65;;;;;;;-147.65;100.00;57646.63;10408993;28;20067;-80
2023/06/25 15:50:57;;;;;;;7.97;5.78;;;;;;;-147.65;100.00;57646.63;10437567;28;20120;-79
2023/06/25 15:55:58;;;;;;;6.07;5.33;;;;;;;-147.65;100.00;57646.63;10394648;28;20053;-78
2023/06/25 16:00:59;;;;;;;6.80;4.40;;;;;;;-147.65;100.00;57646.63;10379665;28;20026;-79
2023/06/25 16:06:00;;;;;;;6.88;4.80;;;;;;;-147.65;100.00;57646.63;10412250;28;20386;-78
2023/06/25 16:11:00;;;;;;;7.07;5.27;;;;;;;-147.65;100.00;57646.63;10403498;28;20500;-79
2023/06/25 16:16:01;;;;;;;6.45;5.15;;;;;;;-147.65;100.00;57646.63;10370331;28;20062;-78
2023/06/25 16:21:01;;;;;;;12.27;5.93;;;;;;;-147.65;100.00;57646.63;10390450;28;20506;-78
2023/06/25 16:26:02;;;;;;;7.37;5.90;;;;;;;-147.65;100.00;57646.63;10389712;28;20264;-78
2023/06/25 16:31:02;;;;;;;7.03;5.30;;;;;;;-147.65;100.00;57646.63;10403698;28;20041;-78
2023/06/25 16:36:03;;;;;;;8.63;5.27;;;;;;;-147.65;100.00;57646.63;10404988;28;20485;-78
2023/06/25 16:41:03;;;;;;;9.48;6.53;;;;;;;-147.65;100.00;57646.63;10397862;28;20041;-78
2023/06/25 16:46:04;;;;;;;8.40;5.83;;;;;;;-147.65;100.00;57646.63;10434095;28;20175;-77
2023/06/25 16:51:04;;;;;;;8.00;5.83;;;;;;;-147.65;100.00;57646.63;10414463;28;20536;-77
2023/06/25 16:56:05;;;;;;;6.77;5.17;;;;;;;-147.65;100.00;57646.63;10397928;28;20033;-77
2023/06/25 17:01:06;;;;;;;8.00;5.23;;;;;;;-147.65;100.00;57646.63;10417782;28;20115;-77
2023/06/25 17:06:06;;;;;;;8.23;6.40;;;;;;;-147.65;100.00;57646.63;10439771;28;20029;-76
2023/06/25 17:11:07;;;;;;;8.47;6.17;;;;;;;-147.65;100.00;57646.63;10420427;28;20087;-79
2023/06/25 17:16:07;;;;;;;8.57;4.80;;;;;;;-147.65;100.00;57646.63;10413969;28;20034;-80
2023/06/25 17:21:08;;;;;;;12.80;6.10;;;;;;;-147.65;100.00;57646.63;10420576;28;20049;-78
2023/06/25 17:26:08;;;;;;;6.57;5.77;;;;;;;-147.65;100.00;57646.63;10367721;28;20037;-80
2023/06/25 17:31:09;;;;;;;7.93;5.77;;;;;;;-147.65;100.00;57646.63;10369408;28;20175;-80
2023/06/25 17:36:09;;;;;;;21.43;17.63;;;;;;;-147.65;100.00;57646.63;10361949;28;20128;-79
2023/06/25 17:41:10;;;;;;;18.97;15.13;;;;;;;-147.65;100.00;57646.63;10354395;28;20049;-78
2023/06/25 17:46:10;;;;;;;9.33;6.83;;;;;;;-147.65;100.00;57646.63;10348798;28;20580;-79
2023/06/25 17:51:11;;;;;;;30.33;26.30;;;;;;;-147.65;100.00;57646.63;10360067;28;20045;-79
2023/06/25 17:56:12;;;;;;;7.33;6.07;;;;;;;-147.65;100.00;57646.63;10411023;28;20490;-79
2023/06/25 18:01:13;;;;;;;9.63;6.28;;;;;;;-147.65;100.00;57646.63;10399417;28;20042;-79
2023/06/25 18:06:13;;;;;;;12.57;8.03;;;;;;;-147.65;100.00;57646.63;10398547;28;20487;-80
2023/06/25 18:11:18;;;;;;;12.37;7.23;;;;;;;-147.65;100.00;57646.63;10398818;28;20059;-81
2023/06/25 18:16:19;;;;;;;10.38;6.65;;;;;;;-147.65;100.00;57646.63;10412291;28;20061;-81
2023/06/25 18:21:19;;;;;;;8.37;6.27;;;;;;;-147.65;100.00;57646.63;10397952;28;20617;-81
2023/06/25 18:26:20;;;;;;;7.67;6.53;;;;;;;-147.65;100.00;57646.63;10391135;28;20041;-80
2023/06/25 18:31:20;;;;;;;9.67;7.67;;;;;;;-147.65;100.00;57646.63;10414642;28;20128;-80
2023/06/25 18:36:21;;;;;;;15.90;7.23;;;;;;;-147.65;100.00;57646.63;10394033;28;20048;-79
2023/06/25 18:41:21;;;;;;;10.40;6.90;;;;;;;-147.65;100.00;57646.63;10377829;28;20041;-79
2023/06/25 18:46:22;;;;;;;8.70;6.83;;;;;;;-147.65;100.00;57646.63;10413558;28;20465;-79
2023/06/25 18:51:23;;;;;;;21.43;8.57;;;;;;;-147.65;100.00;57646.63;10445826;28;20045;-79
2023/06/25 18:56:23;;;;;;;10.93;7.87;;;;;;;-147.65;100.00;57646.63;10374890;28;20080;-79
2023/06/25 19:01:24;;;;;;;12.90;8.17;;;;;;;-147.65;100.00;57646.63;10364795;28;20210;-79
2023/06/25 19:06:25;;;;;;;12.75;8.50;;;;;;;-147.65;100.00;57646.63;10451419;28;20041;-79
2023/06/25 19:11:26;;;;;;;9.30;7.77;;;;;;;-147.65;100.00;57646.63;10422309;28;20389;-79
2023/06/25 19:16:26;;;;;;;9.80;6.97;;;;;;;-147.65;100.00;57646.63;10389004;28;20050;-79
2023/06/25 19:21:27;;;;;;;11.00;7.43;;;;;;;-147.65;100.00;57646.63;10443068;28;20129;-78
2023/06/25 19:26:27;;;;;;;9.17;6.27;;;;;;;-147.65;100.00;57646.63;10393867;28;20034;-79
2023/06/25 19:31:28;;;;;;;8.63;6.07;;;;;;;-147.65;100.00;57646.63;10430785;28;20037;-78
2023/06/25 19:36:28;;;;;;;8.40;6.87;;;;;;;-147.65;100.00;57646.63;10394989;28;20038;-79
2023/06/25 19:41:30;;;;;;;8.00;5.77;;;;;;;-147.65;100.00;57646.63;10373615;28;20033;-79
2023/06/25 19:46:30;;;;;;;9.90;7.27;;;;;;;-147.65;100.00;57646.63;10410499;28;20465;-79
2023/06/25 19:51:31;;;;;;;9.27;6.20;;;;;;;-147.65;100.00;57646.63;10399839;28;20053;-80
2023/06/25 19:56:31;;;;;;;12.40;7.47;;;;;;;-147.65;100.00;57646.63;10408104;28;20055;-79
2023/06/25 20:01:32;;;;;;;10.07;6.53;;;;;;;-147.65;100.00;57646.63;10389660;28;20042;-80
2023/06/25 20:06:32;;;;;;;12.20;7.37;;;;;;;-147.65;100.00;57646.63;10399108;28;20043;-81
2023/06/25 20:11:33;;;;;;;8.88;6.63;;;;;;;-147.65;100.00;57646.63;10397544;28;20095;-78
2023/06/25 20:16:34;;;;;;;10.37;7.80;;;;;;;-147.65;100.00;57646.63;10396585;28;20064;-78
2023/06/25 20:21:34;;;;;;;8.88;7.90;;;;;;;-147.65;100.00;57646.63;10399931;28;20053;-77
2023/06/25 20:26:35;;;;;;;10.90;8.05;;;;;;;-147.65;100.00;57646.63;10398552;28;20103;-78
2023/06/25 20:31:36;;;;;;;11.37;8.37;;;;;;;-147.65;100.00;57646.63;10400524;28;20516;-77
2023/06/25 20:36:36;;;;;;;11.38;7.97;;;;;;;-147.65;100.00;57646.63;10428577;28;20029;-78
2023/06/25 20:41:38;;;;;;;9.88;7.00;;;;;;;-147.65;100.00;57646.63;10399972;28;20464;-78
2023/06/25 20:46:39;;;;;;;9.77;8.77;;;;;;;-147.65;100.00;57646.63;10399347;28;20052;-78
2023/06/25 20:51:39;;;;;;;12.40;9.38;;;;;;;-147.65;100.00;57646.63;10399088;28;20428;-79
2023/06/25 20:56:40;;;;;;;11.27;9.23;;;;;;;-147.65;100.00;57646.63;10433932;28;20034;-79
2023/06/25 21:01:40;;;;;;;9.30;7.93;;;;;;;-147.65;100.00;57646.63;10442068;28;20374;-78
2023/06/25 21:06:41;;;;;;;11.25;9.20;;;;;;;-147.65;100.00;57646.63;10411545;28;20608;-78
2023/06/25 21:11:41;;;;;;;11.23;9.10;;;;;;;-147.65;100.00;57646.63;10444179;28;20037;-78
2023/06/25 21:16:42;;;;;;;16.77;10.10;;;;;;;-147.65;100.00;57646.63;10385449;28;20030;-78
2023/06/25 21:21:43;;;;;;;14.38;9.55;;;;;;;-147.65;100.00;57646.63;10408132;28;20132;-78
2023/06/25 21:26:43;;;;;;;15.05;9.23;;;;;;;-147.65;100.00;57646.63;10474869;28;20492;-77
2023/06/25 21:31:44;;;;;;;18.05;11.75;;;;;;;-147.65;100.00;57646.63;10441922;28;20051;-77
2023/06/25 21:36:44;;;;;;;11.25;10.15;;;;;;;-147.65;100.00;57646.63;10418439;28;20482;-77
2023/06/25 21:41:45;;;;;;;12.25;10.48;;;;;;;-147.65;100.00;57646.63;10394507;28;20234;-78
2023/06/25 21:46:45;;;;;;;12.77;9.70;;;;;;;-147.65;100.00;57646.63;10406046;28;20049;-78
2023/06/25 21:51:46;;;;;;;13.95;10.15;;;;;;;-147.65;100.00;57646.63;10409348;28;20091;-77
2023/06/25 21:56:46;;;;;;;15.98;10.15;;;;;;;-147.65;100.00;57646.63;10408267;28;20076;-78
2023/06/25 22:01:47;;;;;;;23.38;14.52;;;;;;;-147.65;100.00;57646.63;10394578;28;20045;-78
2023/06/25 22:06:47;;;;;;;11.35;8.95;;;;;;;-147.65;100.00;57646.63;10450241;28;20037;-78
2023/06/25 22:11:49;;;;;;;13.93;11.25;;;;;;;-147.65;100.00;57646.63;10446398;28;20037;-78
2023/06/25 22:16:52;;;;;;;11.57;10.40;;;;;;;-147.65;100.00;57646.63;10409057;28;20095;-79
2023/06/25 22:21:53;;;;;;;14.18;10.65;;;;;;;-147.65;100.00;57646.63;10409063;28;20042;-79
2023/06/25 22:26:53;;;;;;;17.55;11.27;;;;;;;-147.65;100.00;57646.63;10381387;28;20482;-79